createdAt,value
2018-11-09T00:00:16.410Z,94.84
2018-11-09T00:01:16.155Z,95.32
2018-11-09T00:02:16.433Z,94.84
2018-11-09T00:03:16.417Z,95.12
2018-11-09T00:04:16.421Z,94.65
2018-11-09T00:05:16.424Z,94.84
2018-11-09T00:06:16.424Z,94.84
2018-11-09T00:07:16.430Z,95.32
2018-11-09T00:08:16.579Z,95.12
2018-11-09T00:09:16.430Z,95.6
2018-11-09T00:10:16.441Z,95.03
2018-11-09T00:11:16.186Z,95.22
2018-11-09T00:12:16.183Z,95.32
2018-11-09T00:13:16.182Z,95.03
2018-11-09T00:14:16.474Z,95.32
2018-11-09T00:15:16.189Z,95.6
2018-11-09T00:16:16.511Z,95.22
2018-11-09T00:17:16.451Z,94.84
2018-11-09T00:18:16.456Z,95.41
2018-11-09T00:19:16.198Z,94.93
2018-11-09T00:20:16.455Z,95.22
2018-11-09T00:21:16.454Z,94.93
2018-11-09T00:22:16.458Z,95.41
2018-11-09T00:23:16.255Z,95.51
2018-11-09T00:24:16.466Z,94.93
2018-11-09T00:25:16.467Z,94.93
2018-11-09T00:26:16.297Z,95.22
2018-11-09T00:27:16.214Z,95.22
2018-11-09T00:28:16.538Z,94.65
2018-11-09T00:29:16.469Z,94.74
2018-11-09T00:30:16.222Z,95.51
2018-11-09T00:31:16.473Z,94.93
2018-11-09T00:32:16.485Z,95.22
2018-11-09T00:33:16.479Z,95.51
2018-11-09T00:34:16.230Z,95.41
2018-11-09T00:35:16.485Z,95.41
2018-11-09T00:36:16.487Z,95.6
2018-11-09T00:37:16.487Z,95.22
2018-11-09T00:38:16.497Z,95.12
2018-11-09T00:39:16.490Z,95.03
2018-11-09T00:40:16.326Z,94.93
2018-11-09T00:41:16.497Z,94.93
2018-11-09T00:42:16.502Z,94.93
2018-11-09T00:43:16.300Z,94.7
2018-11-09T00:44:16.501Z,94.56
2018-11-09T00:45:16.503Z,94.93
2018-11-09T00:46:16.258Z,94.7
2018-11-09T00:47:16.652Z,94.6
2018-11-09T00:48:16.513Z,94.89
2018-11-09T00:49:16.518Z,94.51
2018-11-09T00:50:16.523Z,94.41
2018-11-09T00:51:16.521Z,94.65
2018-11-09T00:52:16.522Z,94.84
2018-11-09T00:53:16.372Z,94.93
2018-11-09T00:54:16.530Z,94.89
2018-11-09T00:55:16.531Z,94.27
2018-11-09T00:56:16.819Z,94.65
2018-11-09T00:57:16.540Z,94.46
2018-11-09T00:58:16.682Z,94.6
2018-11-09T00:59:16.547Z,94.7
2018-11-09T01:00:16.550Z,94.89
2018-11-09T01:01:16.291Z,94.84
2018-11-09T01:02:16.553Z,94.46
2018-11-09T01:03:16.699Z,94.93
2018-11-09T01:04:16.549Z,95.03
2018-11-09T01:05:16.297Z,94.56
2018-11-09T01:06:16.355Z,94.84
2018-11-09T01:07:16.304Z,94.41
2018-11-09T01:08:16.556Z,94.7
2018-11-09T01:09:17.196Z,94.51
2018-11-09T01:10:16.311Z,94.46
2018-11-09T01:11:16.563Z,94.84
2018-11-09T01:12:16.568Z,94.51
2018-11-09T01:13:16.570Z,94.79
2018-11-09T01:14:16.570Z,94.51
2018-11-09T01:15:16.576Z,94.51
2018-11-09T01:16:16.324Z,94.51
2018-11-09T01:17:16.579Z,94.22
2018-11-09T01:18:16.378Z,94.13
2018-11-09T01:19:16.589Z,94.41
2018-11-09T01:20:16.589Z,93.93
2018-11-09T01:21:16.335Z,94.27
2018-11-09T01:22:16.590Z,94.79
2018-11-09T01:23:16.598Z,94.56
2018-11-09T01:24:16.595Z,94.84
2018-11-09T01:25:16.606Z,95.22
2018-11-09T01:26:16.606Z,95.22
2018-11-09T01:27:16.622Z,94.93
2018-11-09T01:28:16.596Z,95.32
2018-11-09T01:29:16.603Z,94.98
2018-11-09T01:30:16.600Z,95.03
2018-11-09T01:31:16.606Z,94.6
2018-11-09T01:32:16.665Z,94.74
2018-11-09T01:33:16.659Z,94.46
2018-11-09T01:34:16.616Z,95.03
2018-11-09T01:35:16.613Z,95.08
2018-11-09T01:36:16.617Z,94.65
2018-11-09T01:37:16.645Z,95.03
2018-11-09T01:38:16.371Z,94.89
2018-11-09T01:39:16.624Z,94.46
2018-11-09T01:40:16.634Z,94.46
2018-11-09T01:41:16.636Z,94.46
2018-11-09T01:42:16.384Z,94.79
2018-11-09T01:43:16.645Z,94.6
2018-11-09T01:44:16.643Z,94.32
2018-11-09T01:45:16.649Z,94.51
2018-11-09T01:46:16.656Z,94.89
2018-11-09T01:47:16.646Z,94.7
2018-11-09T01:48:16.698Z,94.22
2018-11-09T01:49:16.714Z,94.03
2018-11-09T01:50:16.654Z,94.13
2018-11-09T01:51:16.657Z,94.74
2018-11-09T01:52:16.660Z,94.37
2018-11-09T01:53:16.407Z,94.84
2018-11-09T01:54:16.663Z,94.74
2018-11-09T01:55:16.665Z,94.84
2018-11-09T01:56:16.663Z,94.65
2018-11-09T01:57:16.669Z,95.03
2018-11-09T01:58:16.721Z,94.93
2018-11-09T01:59:16.681Z,94.27
2018-11-09T02:00:16.677Z,94.7
2018-11-09T02:01:16.687Z,94.51
2018-11-09T02:02:16.681Z,94.22
2018-11-09T02:03:16.433Z,94.6
2018-11-09T02:04:16.688Z,94.6
2018-11-09T02:05:16.687Z,94.03
2018-11-09T02:06:16.688Z,94.51
2018-11-09T02:07:16.695Z,94.13
2018-11-09T02:08:16.693Z,93.93
2018-11-09T02:09:16.700Z,94.32
2018-11-09T02:10:16.808Z,94.32
2018-11-09T02:11:16.700Z,93.93
2018-11-09T02:12:16.703Z,94.32
2018-11-09T02:13:16.753Z,93.74
2018-11-09T02:14:16.710Z,93.74
2018-11-09T02:15:16.713Z,93.74
2018-11-09T02:16:16.460Z,93.84
2018-11-09T02:17:16.715Z,93.93
2018-11-09T02:18:16.716Z,94.22
2018-11-09T02:19:16.718Z,94.22
2018-11-09T02:20:16.720Z,94.13
2018-11-09T02:21:16.724Z,94.51
2018-11-09T02:22:16.474Z,94.13
2018-11-09T02:23:16.525Z,94.13
2018-11-09T02:24:16.732Z,94.32
2018-11-09T02:25:16.734Z,94.03
2018-11-09T02:26:16.739Z,94.27
2018-11-09T02:27:16.486Z,94.51
2018-11-09T02:28:16.744Z,94.37
2018-11-09T02:29:16.746Z,94.56
2018-11-09T02:30:16.749Z,94.56
2018-11-09T02:31:16.760Z,94.56
2018-11-09T02:32:16.497Z,94.89
2018-11-09T02:33:16.499Z,94.41
2018-11-09T02:34:16.753Z,94.51
2018-11-09T02:35:16.759Z,94.51
2018-11-09T02:36:16.758Z,94.7
2018-11-09T02:37:16.817Z,94.89
2018-11-09T02:38:16.558Z,94.79
2018-11-09T02:39:16.510Z,94.7
2018-11-09T02:40:16.766Z,94.03
2018-11-09T02:41:16.765Z,94.41
2018-11-09T02:42:16.768Z,93.93
2018-11-09T02:43:16.520Z,94.32
2018-11-09T02:44:16.844Z,94.13
2018-11-09T02:45:16.775Z,94.6
2018-11-09T02:46:16.779Z,94.13
2018-11-09T02:47:16.880Z,94.22
2018-11-09T02:48:16.788Z,94.22
2018-11-09T02:49:16.792Z,94.7
2018-11-09T02:50:16.791Z,94.46
2018-11-09T02:51:16.798Z,94.65
2018-11-09T02:52:16.794Z,94.46
2018-11-09T02:53:16.899Z,94.13
2018-11-09T02:54:16.803Z,94.13
2018-11-09T02:55:16.563Z,94.37
2018-11-09T02:56:16.806Z,94.17
2018-11-09T02:57:16.812Z,94.74
2018-11-09T02:58:16.816Z,94.84
2018-11-09T02:59:16.813Z,94.84
2018-11-09T03:00:16.826Z,95.12
2018-11-09T03:01:16.838Z,95.12
2018-11-09T03:02:16.568Z,95.32
2018-11-09T03:03:16.835Z,95.12
2018-11-09T03:04:16.901Z,95.32
2018-11-09T03:05:16.824Z,95.41
2018-11-09T03:06:16.834Z,95.32
2018-11-09T03:07:16.587Z,95.98
2018-11-09T03:08:16.883Z,96.27
2018-11-09T03:09:16.833Z,95.79
2018-11-09T03:10:16.841Z,96.08
2018-11-09T03:11:16.839Z,96.75
2018-11-09T03:12:16.588Z,96.46
2018-11-09T03:13:16.897Z,96.27
2018-11-09T03:14:16.842Z,96.46
2018-11-09T03:15:16.849Z,96.75
2018-11-09T03:16:16.856Z,96.65
2018-11-09T03:17:16.852Z,96.08
2018-11-09T03:18:16.863Z,95.79
2018-11-09T03:19:16.859Z,95.89
2018-11-09T03:20:16.862Z,96.08
2018-11-09T03:21:16.859Z,95.32
2018-11-09T03:22:16.866Z,95.79
2018-11-09T03:23:16.926Z,95.98
2018-11-09T03:24:16.864Z,95.7
2018-11-09T03:25:16.871Z,95.98
2018-11-09T03:26:16.867Z,96.08
2018-11-09T03:27:16.873Z,95.98
2018-11-09T03:28:16.873Z,96.17
2018-11-09T03:29:16.625Z,96.08
2018-11-09T03:30:16.737Z,96.08
2018-11-09T03:31:16.882Z,95.22
2018-11-09T03:32:16.887Z,95.32
2018-11-09T03:33:16.635Z,95.41
2018-11-09T03:34:16.633Z,96.17
2018-11-09T03:35:16.893Z,95.89
2018-11-09T03:36:16.896Z,96.08
2018-11-09T03:37:16.895Z,96.27
2018-11-09T03:38:16.998Z,96.94
2018-11-09T03:39:16.899Z,96.55
2018-11-09T03:40:16.900Z,96.75
2018-11-09T03:41:16.653Z,96.55
2018-11-09T03:42:16.906Z,96.84
2018-11-09T03:43:17.006Z,96.84
2018-11-09T03:44:16.907Z,96.84
2018-11-09T03:45:16.912Z,96.55
2018-11-09T03:46:16.909Z,96.84
2018-11-09T03:47:16.916Z,96.46
2018-11-09T03:48:17.019Z,96.65
2018-11-09T03:49:16.917Z,97.51
2018-11-09T03:50:16.931Z,97.74
2018-11-09T03:51:16.668Z,97.55
2018-11-09T03:52:16.929Z,97.55
2018-11-09T03:53:16.927Z,97.51
2018-11-09T03:54:16.924Z,97.51
2018-11-09T03:55:16.677Z,97.46
2018-11-09T03:56:16.929Z,97.46
2018-11-09T03:57:16.932Z,98.03
2018-11-09T03:58:16.987Z,98.32
2018-11-09T03:59:16.945Z,98.03
2018-11-09T04:00:16.939Z,97.93
2018-11-09T04:01:16.941Z,98.13
2018-11-09T04:02:16.688Z,98.03
2018-11-09T04:03:16.691Z,98.03
2018-11-09T04:04:16.947Z,97.65
2018-11-09T04:05:16.703Z,98.03
2018-11-09T04:06:16.949Z,98.22
2018-11-09T04:07:16.994Z,97.93
2018-11-09T04:08:16.954Z,98.03
2018-11-09T04:09:16.700Z,98.69
2018-11-09T04:10:16.985Z,98.32
2018-11-09T04:11:16.961Z,98.22
2018-11-09T04:12:16.965Z,98.98
2018-11-09T04:13:17.011Z,98.5
2018-11-09T04:14:16.965Z,98.98
2018-11-09T04:15:16.972Z,98.6
2018-11-09T04:16:16.987Z,98.41
2018-11-09T04:17:16.967Z,98.69
2018-11-09T04:18:16.972Z,98.41
2018-11-09T04:19:16.719Z,98.03
2018-11-09T04:20:16.973Z,98.13
2018-11-09T04:21:16.724Z,98.41
2018-11-09T04:22:16.978Z,98.03
2018-11-09T04:23:16.973Z,97.93
2018-11-09T04:24:16.980Z,98.22
2018-11-09T04:25:16.982Z,98.22
2018-11-09T04:26:16.984Z,98.32
2018-11-09T04:27:16.733Z,97.65
2018-11-09T04:28:16.780Z,98.22
2018-11-09T04:29:17.143Z,97.84
2018-11-09T04:30:16.985Z,98.13
2018-11-09T04:31:16.991Z,98.18
2018-11-09T04:32:16.738Z,97.51
2018-11-09T04:33:16.996Z,97.31
2018-11-09T04:34:17.078Z,97.89
2018-11-09T04:35:16.996Z,97.41
2018-11-09T04:36:17.000Z,97.7
2018-11-09T04:37:17.008Z,97.89
2018-11-09T04:38:17.001Z,97.51
2018-11-09T04:39:17.001Z,97.46
2018-11-09T04:40:16.753Z,97.41
2018-11-09T04:41:17.007Z,97.65
2018-11-09T04:42:17.006Z,98.13
2018-11-09T04:43:17.058Z,97.36
2018-11-09T04:44:17.011Z,98.36
2018-11-09T04:45:17.010Z,97.41
2018-11-09T04:46:17.013Z,97.6
2018-11-09T04:47:16.767Z,97.7
2018-11-09T04:48:17.025Z,97.7
2018-11-09T04:49:16.774Z,97.41
2018-11-09T04:50:17.023Z,97.22
2018-11-09T04:51:17.027Z,97.89
2018-11-09T04:52:17.030Z,98.08
2018-11-09T04:53:17.035Z,97.7
2018-11-09T04:54:17.032Z,97.7
2018-11-09T04:55:17.037Z,97.7
2018-11-09T04:56:16.788Z,97.79
2018-11-09T04:57:17.039Z,97.6
2018-11-09T04:58:17.092Z,97.7
2018-11-09T04:59:17.041Z,97.22
2018-11-09T05:00:17.042Z,97.13
2018-11-09T05:01:17.042Z,96.94
2018-11-09T05:02:17.050Z,97.31
2018-11-09T05:03:17.050Z,96.94
2018-11-09T05:04:16.796Z,96.94
2018-11-09T05:05:17.055Z,96.75
2018-11-09T05:06:17.058Z,97.22
2018-11-09T05:07:17.061Z,96.75
2018-11-09T05:08:17.119Z,97.03
2018-11-09T05:09:17.059Z,96.84
2018-11-09T05:10:17.075Z,97.31
2018-11-09T05:11:17.064Z,97.31
2018-11-09T05:12:17.081Z,97.13
2018-11-09T05:13:17.068Z,97.6
2018-11-09T05:14:17.067Z,96.75
2018-11-09T05:15:16.819Z,96.84
2018-11-09T05:16:17.073Z,96.84
2018-11-09T05:17:16.921Z,96.84
2018-11-09T05:18:16.825Z,97.22
2018-11-09T05:19:17.078Z,96.84
2018-11-09T05:20:17.104Z,97.03
2018-11-09T05:21:17.092Z,96.94
2018-11-09T05:22:16.833Z,96.84
2018-11-09T05:23:17.136Z,96.94
2018-11-09T05:24:17.088Z,96.65
2018-11-09T05:25:17.087Z,96.84
2018-11-09T05:26:17.091Z,96.65
2018-11-09T05:27:17.091Z,96.22
2018-11-09T05:28:16.896Z,96.41
2018-11-09T05:29:16.965Z,96.27
2018-11-09T05:30:16.850Z,96.27
2018-11-09T05:31:16.851Z,96.32
2018-11-09T05:32:17.111Z,96.22
2018-11-09T05:33:17.106Z,96.12
2018-11-09T05:34:17.112Z,96.22
2018-11-09T05:35:17.117Z,96.03
2018-11-09T05:36:17.113Z,96.03
2018-11-09T05:37:17.119Z,95.98
2018-11-09T05:38:17.118Z,96.6
2018-11-09T05:39:17.118Z,96.27
2018-11-09T05:40:17.123Z,96.27
2018-11-09T05:41:17.139Z,96.17
2018-11-09T05:42:17.133Z,96.46
2018-11-09T05:43:17.178Z,96.51
2018-11-09T05:44:17.127Z,96.17
2018-11-09T05:45:17.129Z,95.98
2018-11-09T05:46:17.135Z,96.27
2018-11-09T05:47:17.329Z,96.94
2018-11-09T05:48:17.138Z,97.41
2018-11-09T05:49:17.138Z,97.41
2018-11-09T05:50:17.145Z,97.51
2018-11-09T05:51:17.145Z,97.41
2018-11-09T05:52:17.157Z,97.99
2018-11-09T05:53:17.199Z,97.79
2018-11-09T05:54:17.154Z,97.51
2018-11-09T05:55:17.152Z,97.51
2018-11-09T05:56:17.150Z,97.79
2018-11-09T05:57:17.155Z,97.7
2018-11-09T05:58:17.163Z,97.51
2018-11-09T05:59:17.157Z,97.6
2018-11-09T06:00:17.157Z,98.08
2018-11-09T06:01:17.162Z,98.36
2018-11-09T06:02:17.165Z,98.36
2018-11-09T06:03:17.330Z,97.99
2018-11-09T06:04:17.174Z,98.36
2018-11-09T06:05:17.172Z,97.99
2018-11-09T06:06:17.185Z,98.08
2018-11-09T06:07:17.178Z,98.36
2018-11-09T06:08:17.228Z,98.18
2018-11-09T06:09:17.177Z,97.6
2018-11-09T06:10:17.182Z,97.79
2018-11-09T06:11:17.185Z,97.99
2018-11-09T06:12:16.931Z,97.7
2018-11-09T06:13:17.184Z,97.41
2018-11-09T06:14:17.187Z,97.7
2018-11-09T06:15:17.186Z,98.18
2018-11-09T06:16:17.243Z,98.27
2018-11-09T06:17:16.942Z,98.27
2018-11-09T06:18:16.940Z,98.18
2018-11-09T06:19:17.195Z,98.18
2018-11-09T06:20:17.198Z,98.36
2018-11-09T06:21:17.200Z,98.08
2018-11-09T06:22:17.200Z,97.6
2018-11-09T06:23:17.259Z,97.7
2018-11-09T06:24:17.204Z,97.51
2018-11-09T06:25:17.217Z,97.6
2018-11-09T06:26:16.956Z,97.6
2018-11-09T06:27:17.213Z,98.27
2018-11-09T06:28:17.216Z,97.99
2018-11-09T06:29:17.214Z,98.36
2018-11-09T06:30:17.219Z,98.27
2018-11-09T06:31:17.219Z,98.18
2018-11-09T06:32:17.220Z,97.99
2018-11-09T06:33:17.219Z,97.7
2018-11-09T06:34:17.214Z,97.89
2018-11-09T06:35:17.224Z,97.51
2018-11-09T06:36:17.233Z,97.79
2018-11-09T06:37:17.229Z,97.31
2018-11-09T06:38:17.289Z,97.7
2018-11-09T06:39:17.232Z,97.31
2018-11-09T06:40:16.987Z,97.03
2018-11-09T06:41:17.237Z,97.03
2018-11-09T06:42:17.241Z,97.03
2018-11-09T06:43:17.307Z,96.65
2018-11-09T06:44:16.994Z,96.98
2018-11-09T06:45:17.581Z,97.08
2018-11-09T06:46:17.251Z,96.7
2018-11-09T06:47:17.252Z,96.7
2018-11-09T06:48:17.259Z,96.7
2018-11-09T06:49:17.003Z,96.7
2018-11-09T06:50:17.254Z,96.32
2018-11-09T06:51:17.340Z,96.32
2018-11-09T06:52:17.008Z,96.84
2018-11-09T06:53:17.262Z,96.7
2018-11-09T06:54:17.260Z,96.89
2018-11-09T06:55:17.265Z,96.6
2018-11-09T06:56:17.279Z,96.7
2018-11-09T06:57:17.113Z,96.36
2018-11-09T06:58:17.896Z,96.75
2018-11-09T06:59:17.274Z,97.13
2018-11-09T07:00:17.278Z,97.13
2018-11-09T07:01:17.025Z,97.08
2018-11-09T07:02:17.281Z,96.94
2018-11-09T07:03:17.291Z,97.03
2018-11-09T07:04:17.147Z,96.94
2018-11-09T07:05:17.321Z,97.6
2018-11-09T07:06:17.288Z,97.31
2018-11-09T07:07:17.302Z,97.6
2018-11-09T07:08:17.293Z,97.7
2018-11-09T07:09:17.301Z,97.51
2018-11-09T07:10:17.290Z,98.18
2018-11-09T07:11:17.287Z,97.99
2018-11-09T07:12:17.487Z,97.89
2018-11-09T07:13:17.347Z,97.79
2018-11-09T07:14:17.311Z,98.18
2018-11-09T07:15:17.466Z,97.89
2018-11-09T07:16:17.058Z,97.41
2018-11-09T07:17:17.058Z,97.31
2018-11-09T07:18:17.199Z,97.7
2018-11-09T07:19:17.313Z,97.79
2018-11-09T07:20:17.315Z,97.99
2018-11-09T07:21:17.318Z,98.08
2018-11-09T07:22:17.323Z,97.51
2018-11-09T07:23:17.317Z,97.36
2018-11-09T07:24:17.070Z,96.89
2018-11-09T07:25:17.497Z,97.36
2018-11-09T07:26:17.322Z,96.98
2018-11-09T07:27:17.326Z,96.7
2018-11-09T07:28:17.387Z,96.41
2018-11-09T07:29:17.344Z,96.22
2018-11-09T07:30:17.343Z,96.12
2018-11-09T07:31:17.578Z,96.22
2018-11-09T07:32:17.345Z,95.46
2018-11-09T07:33:17.341Z,96.03
2018-11-09T07:34:17.344Z,96.32
2018-11-09T07:35:17.356Z,96.75
2018-11-09T07:36:17.455Z,96.55
2018-11-09T07:37:17.577Z,96.41
2018-11-09T07:38:17.354Z,96.51
2018-11-09T07:39:17.103Z,96.6
2018-11-09T07:40:17.364Z,96.46
2018-11-09T07:41:17.360Z,96.55
2018-11-09T07:42:17.362Z,96.46
2018-11-09T07:43:17.169Z,96.7
2018-11-09T07:44:17.111Z,96.32
2018-11-09T07:45:17.544Z,96.51
2018-11-09T07:46:17.417Z,96.41
2018-11-09T07:47:17.381Z,96.51
2018-11-09T07:48:17.383Z,96.12
2018-11-09T07:49:17.378Z,96.03
2018-11-09T07:50:17.379Z,96.32
2018-11-09T07:51:17.532Z,95.94
2018-11-09T07:52:17.547Z,96.51
2018-11-09T07:53:17.393Z,96.6
2018-11-09T07:54:17.386Z,96.12
2018-11-09T07:55:17.395Z,96.12
2018-11-09T07:56:17.498Z,96.22
2018-11-09T07:57:17.728Z,96.22
2018-11-09T07:58:17.547Z,95.84
2018-11-09T07:59:17.397Z,96.32
2018-11-09T08:00:17.390Z,96.51
2018-11-09T08:01:17.391Z,96.32
2018-11-09T08:02:17.405Z,96.51
2018-11-09T08:03:17.412Z,96.7
2018-11-09T08:04:17.410Z,96.22
2018-11-09T08:05:17.427Z,96.03
2018-11-09T08:06:17.419Z,96.12
2018-11-09T08:07:17.554Z,96.32
2018-11-09T08:08:17.424Z,96.32
2018-11-09T08:09:17.593Z,96.32
2018-11-09T08:10:17.173Z,96.22
2018-11-09T08:11:17.421Z,96.32
2018-11-09T08:12:17.173Z,95.65
2018-11-09T08:13:17.231Z,95.56
2018-11-09T08:14:17.430Z,95.56
2018-11-09T08:15:17.181Z,95.56
2018-11-09T08:16:17.191Z,95.27
2018-11-09T08:17:17.187Z,94.79
2018-11-09T08:18:17.187Z,94.89
2018-11-09T08:19:17.547Z,94.98
2018-11-09T08:20:17.196Z,95.32
2018-11-09T08:21:17.193Z,94.84
2018-11-09T08:22:17.450Z,94.46
2018-11-09T08:23:17.200Z,94.84
2018-11-09T08:24:17.448Z,94.56
2018-11-09T08:25:17.506Z,94.65
2018-11-09T08:26:17.684Z,94.37
2018-11-09T08:27:17.463Z,94.65
2018-11-09T08:28:17.258Z,94.65
2018-11-09T08:29:17.213Z,94.37
2018-11-09T08:30:17.463Z,94.56
2018-11-09T08:31:17.476Z,94.46
2018-11-09T08:32:17.216Z,94.56
2018-11-09T08:33:17.523Z,94.56
2018-11-09T08:34:17.721Z,94.27
2018-11-09T08:35:17.525Z,94.37
2018-11-09T08:36:17.493Z,93.88
2018-11-09T08:37:17.233Z,94.08
2018-11-09T08:38:17.486Z,93.98
2018-11-09T08:39:17.489Z,93.88
2018-11-09T08:40:17.502Z,93.88
2018-11-09T08:41:17.497Z,93.88
2018-11-09T08:42:17.499Z,93.79
2018-11-09T08:43:17.505Z,93.7
2018-11-09T08:44:17.673Z,94.17
2018-11-09T08:45:17.537Z,93.88
2018-11-09T08:46:17.523Z,94.56
2018-11-09T08:47:17.262Z,94.17
2018-11-09T08:48:17.564Z,94.08
2018-11-09T08:49:17.522Z,94.46
2018-11-09T08:50:17.782Z,94.37
2018-11-09T08:51:17.529Z,94.56
2018-11-09T08:52:17.525Z,93.98
2018-11-09T08:53:17.530Z,93.98
2018-11-09T08:54:17.535Z,94.08
2018-11-09T08:55:17.967Z,94.17
2018-11-09T08:56:17.284Z,93.79
2018-11-09T08:57:17.543Z,94.46
2018-11-09T08:58:17.542Z,94.27
2018-11-09T08:59:17.543Z,94.37
2018-11-09T09:00:17.542Z,94.46
2018-11-09T09:01:17.292Z,94.74
2018-11-09T09:02:17.295Z,94.27
2018-11-09T09:03:17.745Z,94.46
2018-11-09T09:04:17.553Z,94.46
2018-11-09T09:05:17.561Z,94.17
2018-11-09T09:06:17.558Z,93.88
2018-11-09T09:07:17.311Z,93.79
2018-11-09T09:08:17.572Z,94.17
2018-11-09T09:09:17.572Z,94.27
2018-11-09T09:10:17.577Z,94.08
2018-11-09T09:11:17.329Z,94.65
2018-11-09T09:12:17.578Z,93.79
2018-11-09T09:13:17.634Z,93.7
2018-11-09T09:14:17.578Z,93.12
2018-11-09T09:15:17.581Z,93.22
2018-11-09T09:16:17.589Z,93.51
2018-11-09T09:17:17.584Z,93.41
2018-11-09T09:18:17.596Z,93.22
2018-11-09T09:19:17.592Z,93.36
2018-11-09T09:20:17.420Z,92.93
2018-11-09T09:21:17.492Z,93.12
2018-11-09T09:22:17.351Z,93.08
2018-11-09T09:23:17.611Z,92.93
2018-11-09T09:24:17.611Z,93.08
2018-11-09T09:25:17.618Z,92.79
2018-11-09T09:26:17.364Z,92.69
2018-11-09T09:27:17.369Z,93.17
2018-11-09T09:28:17.673Z,92.22
2018-11-09T09:29:17.727Z,92.12
2018-11-09T09:30:17.631Z,92.03
2018-11-09T09:31:17.631Z,91.93
2018-11-09T09:32:17.640Z,92.03
2018-11-09T09:33:17.669Z,92.41
2018-11-09T09:34:17.384Z,91.83
2018-11-09T09:35:17.698Z,92.22
2018-11-09T09:36:17.528Z,92.12
2018-11-09T09:37:17.640Z,91.93
2018-11-09T09:38:17.645Z,91.93
2018-11-09T09:39:17.652Z,92.03
2018-11-09T09:40:17.650Z,91.36
2018-11-09T09:41:17.696Z,92.03
2018-11-09T09:42:17.683Z,91.93
2018-11-09T09:43:17.468Z,91.46
2018-11-09T09:44:17.674Z,92.12
2018-11-09T09:45:17.675Z,92.6
2018-11-09T09:46:18.013Z,92.79
2018-11-09T09:47:17.430Z,92.79
2018-11-09T09:48:17.708Z,91.83
2018-11-09T09:49:17.432Z,92.03
2018-11-09T09:50:17.687Z,92.03
2018-11-09T09:51:17.444Z,91.17
2018-11-09T09:52:17.708Z,90.98
2018-11-09T09:53:17.698Z,90.83
2018-11-09T09:54:17.707Z,90.36
2018-11-09T09:55:18.030Z,89.97
2018-11-09T09:56:18.943Z,89.69
2018-11-09T09:57:19.107Z,89.69
2018-11-09T09:58:17.908Z,89.69
2018-11-09T09:59:17.719Z,89.4
2018-11-09T10:00:17.724Z,89.12
2018-11-09T10:01:17.508Z,89.31
2018-11-09T10:02:17.749Z,89.02
2018-11-09T10:03:17.486Z,89.06
2018-11-09T10:04:17.744Z,89.02
2018-11-09T10:05:17.747Z,89.16
2018-11-09T10:06:17.750Z,88.92
2018-11-09T10:07:17.744Z,89.21
2018-11-09T10:08:17.803Z,89.02
2018-11-09T10:09:17.759Z,89.02
2018-11-09T10:10:17.508Z,88.92
2018-11-09T10:11:17.509Z,88.73
2018-11-09T10:12:17.515Z,88.92
2018-11-09T10:13:18.052Z,89.02
2018-11-09T10:14:17.778Z,88.92
2018-11-09T10:15:17.795Z,89.4
2018-11-09T10:16:17.897Z,89.88
2018-11-09T10:17:17.544Z,89.5
2018-11-09T10:18:17.793Z,89.59
2018-11-09T10:19:18.273Z,90.26
2018-11-09T10:20:17.542Z,90.45
2018-11-09T10:21:17.808Z,90.64
2018-11-09T10:22:17.805Z,90.59
2018-11-09T10:23:17.804Z,90.41
2018-11-09T10:24:17.810Z,91.36
2018-11-09T10:25:17.836Z,90.55
2018-11-09T10:26:17.626Z,90.07
2018-11-09T10:27:17.813Z,90.17
2018-11-09T10:28:17.873Z,89.59
2018-11-09T10:29:17.822Z,89.59
2018-11-09T10:30:17.847Z,89.02
2018-11-09T10:31:17.829Z,89.78
2018-11-09T10:32:17.835Z,89.59
2018-11-09T10:33:18.055Z,89.59
2018-11-09T10:34:17.837Z,89.21
2018-11-09T10:35:17.844Z,89.12
2018-11-09T10:36:17.590Z,89.5
2018-11-09T10:37:17.851Z,89.78
2018-11-09T10:38:17.599Z,89.59
2018-11-09T10:39:17.866Z,89.59
2018-11-09T10:40:17.860Z,89.4
2018-11-09T10:41:17.867Z,89.31
2018-11-09T10:42:17.929Z,89.5
2018-11-09T10:43:17.929Z,89.5
2018-11-09T10:44:17.875Z,89.21
2018-11-09T10:45:17.864Z,90.07
2018-11-09T10:46:17.882Z,89.4
2018-11-09T10:47:17.886Z,89.12
2018-11-09T10:48:17.979Z,88.54
2018-11-09T10:49:17.895Z,89.59
2018-11-09T10:50:17.898Z,89.06
2018-11-09T10:51:17.900Z,88.68
2018-11-09T10:52:17.903Z,88.49
2018-11-09T10:53:17.909Z,88.49
2018-11-09T10:54:17.952Z,87.63
2018-11-09T10:55:18.136Z,88.01
2018-11-09T10:56:18.453Z,87.73
2018-11-09T10:57:17.704Z,87.35
2018-11-09T10:58:17.675Z,87.44
2018-11-09T10:59:17.932Z,87.44
2018-11-09T11:00:17.683Z,87.48
2018-11-09T11:01:17.684Z,87.54
2018-11-09T11:02:17.940Z,87.29
2018-11-09T11:03:17.989Z,86.43
2018-11-09T11:04:18.099Z,86.82
2018-11-09T11:05:17.959Z,86.15
2018-11-09T11:06:17.951Z,87.01
2018-11-09T11:07:18.281Z,86.72
2018-11-09T11:08:18.959Z,86.43
2018-11-09T11:09:17.709Z,85.86
2018-11-09T11:10:17.972Z,85.96
2018-11-09T11:11:17.977Z,85.58
2018-11-09T11:12:18.123Z,85.38
2018-11-09T11:13:18.044Z,85.77
2018-11-09T11:14:17.993Z,85.77
2018-11-09T11:15:17.995Z,85.67
2018-11-09T11:16:17.992Z,85.38
2018-11-09T11:17:18.009Z,85.58
2018-11-09T11:18:18.172Z,84.95
2018-11-09T11:19:17.754Z,84.91
2018-11-09T11:20:18.015Z,85
2018-11-09T11:21:17.759Z,84.62
2018-11-09T11:22:18.019Z,85.38
2018-11-09T11:23:17.817Z,84.95
2018-11-09T11:24:18.024Z,84.66
2018-11-09T11:25:18.037Z,84.19
2018-11-09T11:26:17.781Z,84.09
2018-11-09T11:27:18.221Z,84.09
2018-11-09T11:28:17.813Z,84.38
2018-11-09T11:29:18.048Z,84.05
2018-11-09T11:30:18.058Z,84.19
2018-11-09T11:31:17.796Z,84.52
2018-11-09T11:32:17.807Z,84.28
2018-11-09T11:33:18.341Z,84.33
2018-11-09T11:34:17.817Z,84.05
2018-11-09T11:35:18.081Z,84.19
2018-11-09T11:36:17.822Z,84.19
2018-11-09T11:37:18.086Z,83.9
2018-11-09T11:38:18.146Z,83.61
2018-11-09T11:39:17.837Z,84.09
2018-11-09T11:40:18.230Z,83.9
2018-11-09T11:41:17.844Z,84.23
2018-11-09T11:42:18.101Z,84.19
2018-11-09T11:43:18.257Z,83.99
2018-11-09T11:44:17.869Z,83.8
2018-11-09T11:45:18.115Z,83.33
2018-11-09T11:46:17.865Z,83.7
2018-11-09T11:47:18.124Z,83.47
2018-11-09T11:48:17.896Z,83.61
2018-11-09T11:49:18.135Z,83.9
2018-11-09T11:50:18.139Z,84.05
2018-11-09T11:51:17.887Z,83.7
2018-11-09T11:52:18.143Z,84.05
2018-11-09T11:53:18.156Z,84.19
2018-11-09T11:54:18.147Z,84.19
2018-11-09T11:55:18.487Z,83.8
2018-11-09T11:56:18.155Z,83.9
2018-11-09T11:57:18.166Z,83.8
2018-11-09T11:58:18.221Z,83.67
2018-11-09T11:59:18.170Z,83.9
2018-11-09T12:00:18.177Z,83.67
2018-11-09T12:01:17.965Z,83.67
2018-11-09T12:02:18.342Z,83.7
2018-11-09T12:03:17.947Z,83.7
2018-11-09T12:04:18.193Z,83.51
2018-11-09T12:05:18.198Z,83.13
2018-11-09T12:06:18.209Z,83.61
2018-11-09T12:07:17.953Z,83.13
2018-11-09T12:08:18.215Z,83.61
2018-11-09T12:09:18.215Z,83.13
2018-11-09T12:10:18.237Z,82.65
2018-11-09T12:11:18.249Z,82.94
2018-11-09T12:12:19.219Z,82.22
2018-11-09T12:13:18.263Z,82.22
2018-11-09T12:14:17.990Z,81.84
2018-11-09T12:15:18.248Z,82.41
2018-11-09T12:16:18.251Z,82.37
2018-11-09T12:17:18.251Z,81.99
2018-11-09T12:18:18.003Z,82.37
2018-11-09T12:19:18.292Z,82.28
2018-11-09T12:20:18.015Z,82.18
2018-11-09T12:21:18.276Z,81.93
2018-11-09T12:22:18.272Z,82.37
2018-11-09T12:23:18.023Z,82.37
2018-11-09T12:24:18.282Z,82.18
2018-11-09T12:25:18.291Z,82.28
2018-11-09T12:26:18.293Z,82.46
2018-11-09T12:27:18.313Z,82.22
2018-11-09T12:28:18.096Z,82.03
2018-11-09T12:29:18.328Z,82.22
2018-11-09T12:30:18.056Z,82.37
2018-11-09T12:31:18.310Z,82.22
2018-11-09T12:32:18.073Z,81.74
2018-11-09T12:33:18.327Z,81.55
2018-11-09T12:34:18.322Z,82.03
2018-11-09T12:35:18.332Z,81.84
2018-11-09T12:36:18.340Z,81.84
2018-11-09T12:37:18.820Z,82.37
2018-11-09T12:38:19.523Z,82.37
2018-11-09T12:39:18.350Z,82.56
2018-11-09T12:40:18.357Z,82.37
2018-11-09T12:41:18.112Z,82.56
2018-11-09T12:42:18.367Z,82.94
2018-11-09T12:43:18.469Z,82.94
2018-11-09T12:44:18.373Z,83.42
2018-11-09T12:45:18.400Z,82.65
2018-11-09T12:46:18.390Z,83.33
2018-11-09T12:47:18.134Z,82.94
2018-11-09T12:48:18.625Z,82.94
2018-11-09T12:49:18.398Z,83.04
2018-11-09T12:50:18.405Z,82.94
2018-11-09T12:51:18.157Z,83.04
2018-11-09T12:52:18.410Z,83.04
2018-11-09T12:53:18.418Z,83.04
2018-11-09T12:54:18.429Z,82.89
2018-11-09T12:55:18.429Z,82.6